sensor_id;sensor_type;location;lat;lon;timestamp;P1;durP1;ratioP1;P2;durP2;ratioP2
18576;SDS011;9418;52.694;13.294;2022-07-22T00:02:19;11.00;;;7.37;;
18576;SDS011;9418;52.694;13.294;2022-07-22T00:04:46;10.03;;;7.90;;
18576;SDS011;9418;52.694;13.294;2022-07-22T00:07:13;7.73;;;7.13;;
18576;SDS011;9418;52.694;13.294;2022-07-22T00:09:39;8.57;;;7.87;;
18576;SDS011;9418;52.694;13.294;2022-07-22T00:12:06;9.03;;;8.23;;
18576;SDS011;9418;52.694;13.294;2022-07-22T00:14:33;8.63;;;7.93;;
18576;SDS011;9418;52.694;13.294;2022-07-22T00:17:00;8.43;;;7.40;;
18576;SDS011;9418;52.694;13.294;2022-07-22T00:19:27;7.93;;;7.30;;
18576;SDS011;9418;52.694;13.294;2022-07-22T00:21:54;9.70;;;8.13;;
18576;SDS011;9418;52.694;13.294;2022-07-22T00:24:21;8.33;;;7.37;;
18576;SDS011;9418;52.694;13.294;2022-07-22T00:26:47;8.70;;;7.80;;
18576;SDS011;9418;52.694;13.294;2022-07-22T00:29:14;7.67;;;7.03;;
18576;SDS011;9418;52.694;13.294;2022-07-22T00:31:40;8.03;;;7.23;;
18576;SDS011;9418;52.694;13.294;2022-07-22T00:34:07;8.90;;;7.53;;
18576;SDS011;9418;52.694;13.294;2022-07-22T00:36:35;8.10;;;7.30;;
18576;SDS011;9418;52.694;13.294;2022-07-22T00:39:02;10.23;;;7.00;;
18576;SDS011;9418;52.694;13.294;2022-07-22T00:41:29;13.33;;;6.63;;
18576;SDS011;9418;52.694;13.294;2022-07-22T00:43:57;9.07;;;7.23;;
18576;SDS011;9418;52.694;13.294;2022-07-22T00:46:26;8.07;;;7.13;;
18576;SDS011;9418;52.694;13.294;2022-07-22T00:48:54;8.50;;;7.20;;
18576;SDS011;9418;52.694;13.294;2022-07-22T00:51:22;12.53;;;7.70;;
18576;SDS011;9418;52.694;13.294;2022-07-22T00:53:51;11.90;;;6.33;;
18576;SDS011;9418;52.694;13.294;2022-07-22T00:56:18;6.83;;;6.30;;
18576;SDS011;9418;52.694;13.294;2022-07-22T00:58:45;11.00;;;6.10;;
18576;SDS011;9418;52.694;13.294;2022-07-22T01:01:13;8.03;;;6.50;;
18576;SDS011;9418;52.694;13.294;2022-07-22T01:03:40;7.80;;;6.17;;
18576;SDS011;9418;52.694;13.294;2022-07-22T01:06:07;6.40;;;5.20;;
18576;SDS011;9418;52.694;13.294;2022-07-22T01:08:35;5.53;;;5.03;;
18576;SDS011;9418;52.694;13.294;2022-07-22T01:11:09;5.93;;;5.40;;
18576;SDS011;9418;52.694;13.294;2022-07-22T01:13:36;6.10;;;5.50;;
18576;SDS011;9418;52.694;13.294;2022-07-22T01:16:04;5.53;;;5.13;;
18576;SDS011;9418;52.694;13.294;2022-07-22T01:18:32;5.47;;;5.07;;
18576;SDS011;9418;52.694;13.294;2022-07-22T01:21:00;9.03;;;4.97;;
18576;SDS011;9418;52.694;13.294;2022-07-22T01:23:27;7.73;;;5.00;;
18576;SDS011;9418;52.694;13.294;2022-07-22T01:25:53;5.17;;;4.77;;
18576;SDS011;9418;52.694;13.294;2022-07-22T01:28:21;4.63;;;4.23;;
18576;SDS011;9418;52.694;13.294;2022-07-22T01:30:48;5.10;;;4.70;;
18576;SDS011;9418;52.694;13.294;2022-07-22T01:33:15;6.10;;;4.70;;
18576;SDS011;9418;52.694;13.294;2022-07-22T01:35:42;6.70;;;3.97;;
18576;SDS011;9418;52.694;13.294;2022-07-22T01:38:10;4.20;;;3.80;;
18576;SDS011;9418;52.694;13.294;2022-07-22T01:40:37;4.83;;;4.43;;
18576;SDS011;9418;52.694;13.294;2022-07-22T01:43:05;5.20;;;4.80;;
18576;SDS011;9418;52.694;13.294;2022-07-22T01:45:32;4.30;;;3.90;;
18576;SDS011;9418;52.694;13.294;2022-07-22T01:47:59;4.53;;;4.23;;
18576;SDS011;9418;52.694;13.294;2022-07-22T01:50:26;4.40;;;4.07;;
18576;SDS011;9418;52.694;13.294;2022-07-22T01:52:53;4.77;;;4.47;;
18576;SDS011;9418;52.694;13.294;2022-07-22T01:55:21;7.23;;;4.23;;
18576;SDS011;9418;52.694;13.294;2022-07-22T01:57:47;6.23;;;4.27;;
18576;SDS011;9418;52.694;13.294;2022-07-22T02:00:14;4.67;;;4.37;;
18576;SDS011;9418;52.694;13.294;2022-07-22T02:02:41;4.80;;;4.20;;
18576;SDS011;9418;52.694;13.294;2022-07-22T02:05:08;6.73;;;4.20;;
18576;SDS011;9418;52.694;13.294;2022-07-22T02:07:35;4.13;;;3.93;;
18576;SDS011;9418;52.694;13.294;2022-07-22T02:10:02;4.50;;;4.10;;
18576;SDS011;9418;52.694;13.294;2022-07-22T02:12:31;4.63;;;4.23;;
18576;SDS011;9418;52.694;13.294;2022-07-22T02:14:58;4.50;;;4.10;;
18576;SDS011;9418;52.694;13.294;2022-07-22T02:17:25;8.93;;;4.30;;
18576;SDS011;9418;52.694;13.294;2022-07-22T02:19:51;4.63;;;4.10;;
18576;SDS011;9418;52.694;13.294;2022-07-22T02:22:18;8.03;;;5.23;;
18576;SDS011;9418;52.694;13.294;2022-07-22T02:24:45;4.73;;;4.20;;
18576;SDS011;9418;52.694;13.294;2022-07-22T02:27:12;4.73;;;3.80;;
18576;SDS011;9418;52.694;13.294;2022-07-22T02:29:40;4.40;;;4.00;;
18576;SDS011;9418;52.694;13.294;2022-07-22T02:32:06;5.00;;;4.53;;
18576;SDS011;9418;52.694;13.294;2022-07-22T02:34:33;4.10;;;3.80;;
18576;SDS011;9418;52.694;13.294;2022-07-22T02:36:59;7.47;;;4.80;;
18576;SDS011;9418;52.694;13.294;2022-07-22T02:39:26;4.77;;;4.37;;
18576;SDS011;9418;52.694;13.294;2022-07-22T02:41:52;4.93;;;4.50;;
18576;SDS011;9418;52.694;13.294;2022-07-22T02:44:19;4.00;;;3.80;;
18576;SDS011;9418;52.694;13.294;2022-07-22T02:46:47;4.70;;;4.30;;
18576;SDS011;9418;52.694;13.294;2022-07-22T02:49:14;4.90;;;4.40;;
18576;SDS011;9418;52.694;13.294;2022-07-22T02:51:40;4.07;;;3.70;;
18576;SDS011;9418;52.694;13.294;2022-07-22T02:54:07;4.63;;;4.33;;
18576;SDS011;9418;52.694;13.294;2022-07-22T02:56:34;4.40;;;4.10;;
18576;SDS011;9418;52.694;13.294;2022-07-22T02:59:00;4.43;;;4.07;;
18576;SDS011;9418;52.694;13.294;2022-07-22T03:01:27;7.80;;;4.70;;
18576;SDS011;9418;52.694;13.294;2022-07-22T03:03:55;6.63;;;5.10;;
18576;SDS011;9418;52.694;13.294;2022-07-22T03:06:21;5.43;;;4.50;;
18576;SDS011;9418;52.694;13.294;2022-07-22T03:08:48;11.50;;;4.40;;
18576;SDS011;9418;52.694;13.294;2022-07-22T03:11:15;4.73;;;4.33;;
18576;SDS011;9418;52.694;13.294;2022-07-22T03:13:41;5.83;;;5.23;;
18576;SDS011;9418;52.694;13.294;2022-07-22T03:16:08;4.57;;;4.17;;
18576;SDS011;9418;52.694;13.294;2022-07-22T03:18:35;5.07;;;4.67;;
18576;SDS011;9418;52.694;13.294;2022-07-22T03:21:02;5.73;;;4.67;;
18576;SDS011;9418;52.694;13.294;2022-07-22T03:23:29;5.03;;;4.60;;
18576;SDS011;9418;52.694;13.294;2022-07-22T03:25:56;4.83;;;4.43;;
18576;SDS011;9418;52.694;13.294;2022-07-22T03:28:23;5.00;;;4.50;;
18576;SDS011;9418;52.694;13.294;2022-07-22T03:30:49;5.10;;;4.67;;
18576;SDS011;9418;52.694;13.294;2022-07-22T03:33:16;5.33;;;4.27;;
18576;SDS011;9418;52.694;13.294;2022-07-22T03:35:42;5.37;;;4.90;;
18576;SDS011;9418;52.694;13.294;2022-07-22T03:38:10;5.10;;;4.60;;
18576;SDS011;9418;52.694;13.294;2022-07-22T03:40:37;12.20;;;4.67;;
18576;SDS011;9418;52.694;13.294;2022-07-22T03:43:03;5.03;;;4.50;;
18576;SDS011;9418;52.694;13.294;2022-07-22T03:45:31;5.27;;;4.80;;
18576;SDS011;9418;52.694;13.294;2022-07-22T03:47:57;5.30;;;4.80;;
18576;SDS011;9418;52.694;13.294;2022-07-22T03:50:24;4.83;;;4.20;;
18576;SDS011;9418;52.694;13.294;2022-07-22T03:52:51;4.43;;;4.10;;
18576;SDS011;9418;52.694;13.294;2022-07-22T03:55:19;6.23;;;5.60;;
18576;SDS011;9418;52.694;13.294;2022-07-22T03:57:46;6.10;;;5.23;;
18576;SDS011;9418;52.694;13.294;2022-07-22T04:00:13;5.80;;;5.40;;
18576;SDS011;9418;52.694;13.294;2022-07-22T04:02:40;5.00;;;4.60;;
18576;SDS011;9418;52.694;13.294;2022-07-22T04:05:06;7.17;;;5.17;;
18576;SDS011;9418;52.694;13.294;2022-07-22T04:07:33;4.97;;;4.63;;
18576;SDS011;9418;52.694;13.294;2022-07-22T04:10:00;5.37;;;4.97;;
18576;SDS011;9418;52.694;13.294;2022-07-22T04:12:32;6.47;;;5.80;;
18576;SDS011;9418;52.694;13.294;2022-07-22T04:14:59;7.83;;;5.73;;
18576;SDS011;9418;52.694;13.294;2022-07-22T04:17:25;7.20;;;6.27;;
18576;SDS011;9418;52.694;13.294;2022-07-22T04:19:52;9.97;;;5.53;;
18576;SDS011;9418;52.694;13.294;2022-07-22T04:22:19;6.73;;;5.60;;
18576;SDS011;9418;52.694;13.294;2022-07-22T04:24:45;5.63;;;5.23;;
18576;SDS011;9418;52.694;13.294;2022-07-22T04:27:12;6.70;;;6.20;;
18576;SDS011;9418;52.694;13.294;2022-07-22T04:29:40;6.87;;;6.27;;
18576;SDS011;9418;52.694;13.294;2022-07-22T04:32:06;6.40;;;5.90;;
18576;SDS011;9418;52.694;13.294;2022-07-22T04:34:33;7.13;;;6.53;;
18576;SDS011;9418;52.694;13.294;2022-07-22T04:36:59;6.90;;;6.20;;
18576;SDS011;9418;52.694;13.294;2022-07-22T04:39:26;6.77;;;6.17;;
18576;SDS011;9418;52.694;13.294;2022-07-22T04:41:52;7.03;;;6.43;;
18576;SDS011;9418;52.694;13.294;2022-07-22T04:44:19;9.10;;;7.13;;
18576;SDS011;9418;52.694;13.294;2022-07-22T04:46:47;14.83;;;7.40;;
18576;SDS011;9418;52.694;13.294;2022-07-22T04:49:13;9.03;;;7.40;;
18576;SDS011;9418;52.694;13.294;2022-07-22T04:51:40;7.87;;;7.23;;
18576;SDS011;9418;52.694;13.294;2022-07-22T04:54:07;11.27;;;6.53;;
18576;SDS011;9418;52.694;13.294;2022-07-22T04:56:33;8.40;;;7.67;;
18576;SDS011;9418;52.694;13.294;2022-07-22T04:59:00;8.57;;;7.87;;
18576;SDS011;9418;52.694;13.294;2022-07-22T05:01:27;8.60;;;7.87;;
18576;SDS011;9418;52.694;13.294;2022-07-22T05:03:54;8.60;;;7.80;;
18576;SDS011;9418;52.694;13.294;2022-07-22T05:06:21;10.83;;;7.30;;
18576;SDS011;9418;52.694;13.294;2022-07-22T05:08:48;8.60;;;7.80;;
18576;SDS011;9418;52.694;13.294;2022-07-22T05:11:14;8.60;;;7.90;;
18576;SDS011;9418;52.694;13.294;2022-07-22T05:13:41;8.00;;;7.23;;
18576;SDS011;9418;52.694;13.294;2022-07-22T05:16:07;8.33;;;7.63;;
18576;SDS011;9418;52.694;13.294;2022-07-22T05:18:34;8.87;;;8.07;;
18576;SDS011;9418;52.694;13.294;2022-07-22T05:21:02;8.57;;;7.87;;
18576;SDS011;9418;52.694;13.294;2022-07-22T05:23:29;8.40;;;7.47;;
18576;SDS011;9418;52.694;13.294;2022-07-22T05:25:56;8.80;;;7.70;;
18576;SDS011;9418;52.694;13.294;2022-07-22T05:28:23;8.77;;;7.83;;
18576;SDS011;9418;52.694;13.294;2022-07-22T05:30:50;9.33;;;8.43;;
18576;SDS011;9418;52.694;13.294;2022-07-22T05:33:17;9.73;;;8.07;;
18576;SDS011;9418;52.694;13.294;2022-07-22T05:35:43;7.97;;;7.13;;
18576;SDS011;9418;52.694;13.294;2022-07-22T05:38:11;9.67;;;8.77;;
18576;SDS011;9418;52.694;13.294;2022-07-22T05:40:38;9.63;;;8.63;;
18576;SDS011;9418;52.694;13.294;2022-07-22T05:43:04;9.90;;;8.93;;
18576;SDS011;9418;52.694;13.294;2022-07-22T05:45:31;10.73;;;9.63;;
18576;SDS011;9418;52.694;13.294;2022-07-22T05:47:58;12.67;;;10.93;;
18576;SDS011;9418;52.694;13.294;2022-07-22T05:50:26;11.63;;;9.47;;
18576;SDS011;9418;52.694;13.294;2022-07-22T05:52:53;11.43;;;9.70;;
18576;SDS011;9418;52.694;13.294;2022-07-22T05:55:20;12.03;;;9.60;;
18576;SDS011;9418;52.694;13.294;2022-07-22T05:57:47;11.90;;;8.80;;
18576;SDS011;9418;52.694;13.294;2022-07-22T06:00:14;11.30;;;8.90;;
18576;SDS011;9418;52.694;13.294;2022-07-22T06:02:41;8.57;;;7.63;;
18576;SDS011;9418;52.694;13.294;2022-07-22T06:05:07;11.43;;;9.67;;
18576;SDS011;9418;52.694;13.294;2022-07-22T06:07:34;10.23;;;9.23;;
18576;SDS011;9418;52.694;13.294;2022-07-22T06:10:01;12.30;;;9.77;;
18576;SDS011;9418;52.694;13.294;2022-07-22T06:12:29;10.73;;;9.30;;
18576;SDS011;9418;52.694;13.294;2022-07-22T06:14:55;13.70;;;10.10;;
18576;SDS011;9418;52.694;13.294;2022-07-22T06:17:22;13.53;;;10.67;;
18576;SDS011;9418;52.694;13.294;2022-07-22T06:19:49;9.30;;;8.40;;
18576;SDS011;9418;52.694;13.294;2022-07-22T06:22:15;10.07;;;9.07;;
18576;SDS011;9418;52.694;13.294;2022-07-22T06:24:42;8.83;;;8.10;;
18576;SDS011;9418;52.694;13.294;2022-07-22T06:27:09;11.33;;;10.23;;
18576;SDS011;9418;52.694;13.294;2022-07-22T06:29:37;9.77;;;8.87;;
18576;SDS011;9418;52.694;13.294;2022-07-22T06:32:05;11.00;;;10.00;;
18576;SDS011;9418;52.694;13.294;2022-07-22T06:34:32;12.10;;;9.10;;
18576;SDS011;9418;52.694;13.294;2022-07-22T06:36:59;9.80;;;8.10;;
18576;SDS011;9418;52.694;13.294;2022-07-22T06:39:25;9.90;;;7.97;;
18576;SDS011;9418;52.694;13.294;2022-07-22T06:41:52;10.13;;;9.00;;
18576;SDS011;9418;52.694;13.294;2022-07-22T06:44:18;8.87;;;8.07;;
18576;SDS011;9418;52.694;13.294;2022-07-22T06:46:46;9.40;;;8.60;;
18576;SDS011;9418;52.694;13.294;2022-07-22T06:49:13;9.33;;;8.53;;
18576;SDS011;9418;52.694;13.294;2022-07-22T06:51:40;15.90;;;8.27;;
18576;SDS011;9418;52.694;13.294;2022-07-22T06:54:06;10.77;;;9.70;;
18576;SDS011;9418;52.694;13.294;2022-07-22T06:56:33;8.80;;;7.93;;
18576;SDS011;9418;52.694;13.294;2022-07-22T06:58:59;11.83;;;8.90;;
18576;SDS011;9418;52.694;13.294;2022-07-22T07:01:26;8.97;;;8.17;;
18576;SDS011;9418;52.694;13.294;2022-07-22T07:03:54;9.80;;;8.50;;
18576;SDS011;9418;52.694;13.294;2022-07-22T07:06:20;11.17;;;8.70;;
18576;SDS011;9418;52.694;13.294;2022-07-22T07:08:47;8.57;;;7.70;;
18576;SDS011;9418;52.694;13.294;2022-07-22T07:11:13;8.03;;;7.30;;
18576;SDS011;9418;52.694;13.294;2022-07-22T07:13:40;8.40;;;7.60;;
18576;SDS011;9418;52.694;13.294;2022-07-22T07:16:07;8.17;;;7.57;;
18576;SDS011;9418;52.694;13.294;2022-07-22T07:18:34;6.97;;;6.43;;
18576;SDS011;9418;52.694;13.294;2022-07-22T07:21:02;7.47;;;6.77;;
18576;SDS011;9418;52.694;13.294;2022-07-22T07:23:29;6.73;;;6.23;;
18576;SDS011;9418;52.694;13.294;2022-07-22T07:25:56;7.73;;;7.03;;
18576;SDS011;9418;52.694;13.294;2022-07-22T07:28:22;6.40;;;5.97;;
18576;SDS011;9418;52.694;13.294;2022-07-22T07:30:49;7.17;;;6.47;;
18576;SDS011;9418;52.694;13.294;2022-07-22T07:33:16;5.63;;;5.23;;
18576;SDS011;9418;52.694;13.294;2022-07-22T07:35:42;6.53;;;5.93;;
18576;SDS011;9418;52.694;13.294;2022-07-22T07:38:10;6.27;;;5.67;;
18576;SDS011;9418;52.694;13.294;2022-07-22T07:40:37;6.80;;;6.20;;
18576;SDS011;9418;52.694;13.294;2022-07-22T07:43:03;6.97;;;6.37;;
18576;SDS011;9418;52.694;13.294;2022-07-22T07:45:30;5.90;;;5.50;;
18576;SDS011;9418;52.694;13.294;2022-07-22T07:47:58;6.40;;;5.90;;
18576;SDS011;9418;52.694;13.294;2022-07-22T07:50:25;6.93;;;6.33;;
18576;SDS011;9418;52.694;13.294;2022-07-22T07:52:52;7.03;;;6.30;;
18576;SDS011;9418;52.694;13.294;2022-07-22T07:55:20;6.83;;;6.33;;
18576;SDS011;9418;52.694;13.294;2022-07-22T07:57:48;6.30;;;5.80;;
18576;SDS011;9418;52.694;13.294;2022-07-22T08:00:16;5.50;;;5.20;;
18576;SDS011;9418;52.694;13.294;2022-07-22T08:02:46;5.97;;;5.43;;
18576;SDS011;9418;52.694;13.294;2022-07-22T08:05:12;6.00;;;5.53;;
18576;SDS011;9418;52.694;13.294;2022-07-22T08:07:40;5.90;;;5.40;;
18576;SDS011;9418;52.694;13.294;2022-07-22T08:10:07;6.33;;;5.83;;
18576;SDS011;9418;52.694;13.294;2022-07-22T08:12:36;6.70;;;5.97;;
18576;SDS011;9418;52.694;13.294;2022-07-22T08:15:03;5.73;;;5.23;;
18576;SDS011;9418;52.694;13.294;2022-07-22T08:17:30;6.47;;;5.90;;
18576;SDS011;9418;52.694;13.294;2022-07-22T08:19:57;6.70;;;6.00;;
18576;SDS011;9418;52.694;13.294;2022-07-22T08:22:24;8.10;;;6.73;;
18576;SDS011;9418;52.694;13.294;2022-07-22T08:24:50;5.90;;;5.50;;
18576;SDS011;9418;52.694;13.294;2022-07-22T08:27:19;5.93;;;5.50;;
18576;SDS011;9418;52.694;13.294;2022-07-22T08:29:47;7.30;;;6.73;;
18576;SDS011;9418;52.694;13.294;2022-07-22T08:32:13;5.73;;;5.33;;
18576;SDS011;9418;52.694;13.294;2022-07-22T08:34:40;7.83;;;6.93;;
18576;SDS011;9418;52.694;13.294;2022-07-22T08:37:07;6.97;;;6.37;;
18576;SDS011;9418;52.694;13.294;2022-07-22T08:39:34;6.37;;;5.80;;
18576;SDS011;9418;52.694;13.294;2022-07-22T08:42:00;6.90;;;6.30;;
18576;SDS011;9418;52.694;13.294;2022-07-22T08:44:28;6.70;;;5.60;;
18576;SDS011;9418;52.694;13.294;2022-07-22T08:46:57;8.77;;;5.40;;
18576;SDS011;9418;52.694;13.294;2022-07-22T08:49:24;5.67;;;5.17;;
18576;SDS011;9418;52.694;13.294;2022-07-22T08:51:51;5.70;;;5.30;;
18576;SDS011;9418;52.694;13.294;2022-07-22T08:54:17;6.27;;;5.00;;
18576;SDS011;9418;52.694;13.294;2022-07-22T08:56:45;5.50;;;5.00;;
18576;SDS011;9418;52.694;13.294;2022-07-22T08:59:13;5.80;;;5.30;;
18576;SDS011;9418;52.694;13.294;2022-07-22T09:01:40;5.73;;;5.00;;
18576;SDS011;9418;52.694;13.294;2022-07-22T09:04:28;5.77;;;5.37;;
18576;SDS011;9418;52.694;13.294;2022-07-22T09:06:56;5.20;;;4.87;;
18576;SDS011;9418;52.694;13.294;2022-07-22T09:09:28;5.47;;;5.00;;
18576;SDS011;9418;52.694;13.294;2022-07-22T09:12:03;6.43;;;5.80;;
18576;SDS011;9418;52.694;13.294;2022-07-22T09:14:36;4.90;;;4.30;;
18576;SDS011;9418;52.694;13.294;2022-07-22T09:17:23;5.37;;;4.90;;
18576;SDS011;9418;52.694;13.294;2022-07-22T09:19:51;4.43;;;4.17;;
18576;SDS011;9418;52.694;13.294;2022-07-22T09:22:29;5.10;;;4.70;;
18576;SDS011;9418;52.694;13.294;2022-07-22T09:24:58;4.83;;;4.50;;
18576;SDS011;9418;52.694;13.294;2022-07-22T09:27:24;9.10;;;4.70;;
18576;SDS011;9418;52.694;13.294;2022-07-22T09:29:52;5.60;;;5.10;;
18576;SDS011;9418;52.694;13.294;2022-07-22T09:32:22;3.43;;;3.23;;
18576;SDS011;9418;52.694;13.294;2022-07-22T09:34:49;4.53;;;4.07;;
18576;SDS011;9418;52.694;13.294;2022-07-22T09:37:15;3.43;;;3.13;;
18576;SDS011;9418;52.694;13.294;2022-07-22T09:39:43;3.73;;;3.37;;
18576;SDS011;9418;52.694;13.294;2022-07-22T09:42:09;3.97;;;3.20;;
18576;SDS011;9418;52.694;13.294;2022-07-22T09:44:36;2.50;;;2.40;;
18576;SDS011;9418;52.694;13.294;2022-07-22T09:47:02;2.50;;;2.40;;
18576;SDS011;9418;52.694;13.294;2022-07-22T09:49:31;2.90;;;2.30;;
18576;SDS011;9418;52.694;13.294;2022-07-22T09:51:58;2.87;;;2.57;;
18576;SDS011;9418;52.694;13.294;2022-07-22T09:54:26;3.13;;;2.93;;
18576;SDS011;9418;52.694;13.294;2022-07-22T09:56:53;2.70;;;2.50;;
18576;SDS011;9418;52.694;13.294;2022-07-22T09:59:20;3.43;;;3.23;;
18576;SDS011;9418;52.694;13.294;2022-07-22T10:01:47;4.50;;;4.30;;
18576;SDS011;9418;52.694;13.294;2022-07-22T10:04:16;4.13;;;3.83;;
18576;SDS011;9418;52.694;13.294;2022-07-22T10:06:48;3.90;;;3.70;;
18576;SDS011;9418;52.694;13.294;2022-07-22T10:09:15;4.27;;;4.07;;
18576;SDS011;9418;52.694;13.294;2022-07-22T10:11:43;4.60;;;4.30;;
18576;SDS011;9418;52.694;13.294;2022-07-22T10:14:12;4.43;;;4.00;;
18576;SDS011;9418;52.694;13.294;2022-07-22T10:16:40;5.07;;;4.73;;
18576;SDS011;9418;52.694;13.294;2022-07-22T10:19:07;5.33;;;4.60;;
18576;SDS011;9418;52.694;13.294;2022-07-22T10:21:34;5.67;;;5.27;;
18576;SDS011;9418;52.694;13.294;2022-07-22T10:24:09;5.27;;;4.87;;
18576;SDS011;9418;52.694;13.294;2022-07-22T10:26:46;6.13;;;5.53;;
18576;SDS011;9418;52.694;13.294;2022-07-22T10:29:23;6.07;;;5.63;;
18576;SDS011;9418;52.694;13.294;2022-07-22T10:31:51;6.80;;;6.20;;
18576;SDS011;9418;52.694;13.294;2022-07-22T10:37:48;7.13;;;6.47;;
18576;SDS011;9418;52.694;13.294;2022-07-22T10:40:19;5.90;;;5.50;;
18576;SDS011;9418;52.694;13.294;2022-07-22T10:43:02;7.67;;;6.97;;
18576;SDS011;9418;52.694;13.294;2022-07-22T10:45:36;9.17;;;7.40;;
18576;SDS011;9418;52.694;13.294;2022-07-22T10:48:05;9.10;;;7.80;;
18576;SDS011;9418;52.694;13.294;2022-07-22T10:53:41;7.03;;;6.53;;
18576;SDS011;9418;52.694;13.294;2022-07-22T10:56:15;10.10;;;6.50;;
18576;SDS011;9418;52.694;13.294;2022-07-22T10:58:47;7.10;;;6.50;;
18576;SDS011;9418;52.694;13.294;2022-07-22T11:01:19;7.77;;;7.10;;
18576;SDS011;9418;52.694;13.294;2022-07-22T11:03:47;8.60;;;6.93;;
18576;SDS011;9418;52.694;13.294;2022-07-22T11:06:16;8.73;;;8.00;;
18576;SDS011;9418;52.694;13.294;2022-07-22T11:08:45;9.97;;;7.80;;
18576;SDS011;9418;52.694;13.294;2022-07-22T11:11:15;7.20;;;6.60;;
18576;SDS011;9418;52.694;13.294;2022-07-22T11:13:43;6.77;;;6.17;;
18576;SDS011;9418;52.694;13.294;2022-07-22T11:16:14;5.80;;;5.30;;
18576;SDS011;9418;52.694;13.294;2022-07-22T11:18:46;4.50;;;4.20;;
18576;SDS011;9418;52.694;13.294;2022-07-22T11:21:15;5.13;;;4.60;;
18576;SDS011;9418;52.694;13.294;2022-07-22T11:23:42;5.97;;;5.23;;
18576;SDS011;9418;52.694;13.294;2022-07-22T11:26:10;5.47;;;5.07;;
18576;SDS011;9418;52.694;13.294;2022-07-22T11:28:42;5.53;;;5.13;;
18576;SDS011;9418;52.694;13.294;2022-07-22T11:31:13;4.47;;;4.20;;
18576;SDS011;9418;52.694;13.294;2022-07-22T11:33:41;4.90;;;4.60;;
18576;SDS011;9418;52.694;13.294;2022-07-22T11:36:08;4.90;;;4.60;;
18576;SDS011;9418;52.694;13.294;2022-07-22T11:38:39;6.33;;;5.10;;
18576;SDS011;9418;52.694;13.294;2022-07-22T11:41:10;4.67;;;4.37;;
18576;SDS011;9418;52.694;13.294;2022-07-22T11:43:38;3.43;;;3.13;;
18576;SDS011;9418;52.694;13.294;2022-07-22T11:46:07;3.73;;;3.53;;
18576;SDS011;9418;52.694;13.294;2022-07-22T11:48:33;3.23;;;3.07;;
18576;SDS011;9418;52.694;13.294;2022-07-22T11:51:00;3.60;;;3.30;;
18576;SDS011;9418;52.694;13.294;2022-07-22T11:53:27;2.80;;;2.70;;
18576;SDS011;9418;52.694;13.294;2022-07-22T11:55:57;2.67;;;2.57;;
18576;SDS011;9418;52.694;13.294;2022-07-22T11:58:37;2.40;;;2.30;;
18576;SDS011;9418;52.694;13.294;2022-07-22T12:01:07;2.77;;;2.67;;
18576;SDS011;9418;52.694;13.294;2022-07-22T12:03:35;3.37;;;3.07;;
18576;SDS011;9418;52.694;13.294;2022-07-22T12:06:04;2.47;;;2.37;;
18576;SDS011;9418;52.694;13.294;2022-07-22T12:08:33;1.87;;;1.77;;
18576;SDS011;9418;52.694;13.294;2022-07-22T12:11:01;2.80;;;2.60;;
18576;SDS011;9418;52.694;13.294;2022-07-22T12:13:29;3.37;;;3.17;;
18576;SDS011;9418;52.694;13.294;2022-07-22T12:15:56;3.10;;;3.00;;
18576;SDS011;9418;52.694;13.294;2022-07-22T12:18:25;3.03;;;2.93;;
18576;SDS011;9418;52.694;13.294;2022-07-22T12:20:53;6.93;;;3.57;;
18576;SDS011;9418;52.694;13.294;2022-07-22T12:23:21;3.30;;;3.10;;
18576;SDS011;9418;52.694;13.294;2022-07-22T12:25:53;3.80;;;3.50;;
18576;SDS011;9418;52.694;13.294;2022-07-22T12:28:22;3.90;;;3.60;;
18576;SDS011;9418;52.694;13.294;2022-07-22T12:30:50;6.60;;;3.50;;
18576;SDS011;9418;52.694;13.294;2022-07-22T12:33:18;3.93;;;3.50;;
18576;SDS011;9418;52.694;13.294;2022-07-22T12:35:58;3.90;;;3.60;;
18576;SDS011;9418;52.694;13.294;2022-07-22T12:38:27;6.00;;;3.47;;
18576;SDS011;9418;52.694;13.294;2022-07-22T12:40:54;5.53;;;3.10;;
18576;SDS011;9418;52.694;13.294;2022-07-22T12:43:23;3.30;;;3.10;;
18576;SDS011;9418;52.694;13.294;2022-07-22T12:45:51;3.47;;;3.27;;
18576;SDS011;9418;52.694;13.294;2022-07-22T12:48:18;3.50;;;3.20;;
18576;SDS011;9418;52.694;13.294;2022-07-22T12:50:53;3.20;;;3.00;;
18576;SDS011;9418;52.694;13.294;2022-07-22T12:53:23;2.93;;;2.73;;
18576;SDS011;9418;52.694;13.294;2022-07-22T12:55:51;3.07;;;2.67;;
18576;SDS011;9418;52.694;13.294;2022-07-22T12:58:21;4.03;;;2.20;;
18576;SDS011;9418;52.694;13.294;2022-07-22T13:00:52;2.53;;;2.43;;
18576;SDS011;9418;52.694;13.294;2022-07-22T13:03:20;2.60;;;2.40;;
18576;SDS011;9418;52.694;13.294;2022-07-22T13:05:51;2.87;;;2.67;;
18576;SDS011;9418;52.694;13.294;2022-07-22T13:08:18;4.10;;;1.90;;
18576;SDS011;9418;52.694;13.294;2022-07-22T13:10:47;1.70;;;1.70;;
18576;SDS011;9418;52.694;13.294;2022-07-22T13:13:13;1.70;;;1.60;;
18576;SDS011;9418;52.694;13.294;2022-07-22T13:15:40;1.70;;;1.60;;
18576;SDS011;9418;52.694;13.294;2022-07-22T13:18:07;2.30;;;2.10;;
18576;SDS011;9418;52.694;13.294;2022-07-22T13:20:33;6.43;;;1.70;;
18576;SDS011;9418;52.694;13.294;2022-07-22T13:23:00;3.13;;;2.40;;
18576;SDS011;9418;52.694;13.294;2022-07-22T13:25:27;2.47;;;2.27;;
18576;SDS011;9418;52.694;13.294;2022-07-22T13:27:57;2.60;;;1.90;;
18576;SDS011;9418;52.694;13.294;2022-07-22T13:30:24;3.37;;;2.77;;
18576;SDS011;9418;52.694;13.294;2022-07-22T13:32:51;3.10;;;1.97;;
18576;SDS011;9418;52.694;13.294;2022-07-22T13:35:18;1.80;;;1.70;;
18576;SDS011;9418;52.694;13.294;2022-07-22T13:37:44;2.47;;;2.33;;
18576;SDS011;9418;52.694;13.294;2022-07-22T13:40:12;2.20;;;1.90;;
18576;SDS011;9418;52.694;13.294;2022-07-22T13:42:39;1.90;;;1.70;;
18576;SDS011;9418;52.694;13.294;2022-07-22T13:45:08;3.70;;;2.00;;
18576;SDS011;9418;52.694;13.294;2022-07-22T13:47:36;3.10;;;1.80;;
18576;SDS011;9418;52.694;13.294;2022-07-22T13:50:05;1.90;;;1.80;;
18576;SDS011;9418;52.694;13.294;2022-07-22T13:52:32;1.87;;;1.77;;
18576;SDS011;9418;52.694;13.294;2022-07-22T13:54:59;2.33;;;1.57;;
18576;SDS011;9418;52.694;13.294;2022-07-22T13:57:25;3.80;;;3.10;;
18576;SDS011;9418;52.694;13.294;2022-07-22T13:59:52;4.67;;;3.27;;
18576;SDS011;9418;52.694;13.294;2022-07-22T14:02:22;7.03;;;3.43;;
18576;SDS011;9418;52.694;13.294;2022-07-22T14:04:48;7.50;;;3.47;;
18576;SDS011;9418;52.694;13.294;2022-07-22T14:07:15;22.13;;;9.97;;
18576;SDS011;9418;52.694;13.294;2022-07-22T14:09:42;19.33;;;7.03;;
18576;SDS011;9418;52.694;13.294;2022-07-22T14:12:08;9.10;;;5.80;;
18576;SDS011;9418;52.694;13.294;2022-07-22T14:14:35;3.00;;;1.87;;
18576;SDS011;9418;52.694;13.294;2022-07-22T14:17:02;5.13;;;2.80;;
18576;SDS011;9418;52.694;13.294;2022-07-22T14:19:29;3.03;;;1.83;;
18576;SDS011;9418;52.694;13.294;2022-07-22T14:21:56;3.10;;;2.00;;
18576;SDS011;9418;52.694;13.294;2022-07-22T14:24:23;1.93;;;1.63;;
18576;SDS011;9418;52.694;13.294;2022-07-22T14:26:51;1.60;;;1.43;;
18576;SDS011;9418;52.694;13.294;2022-07-22T14:29:18;3.27;;;1.67;;
18576;SDS011;9418;52.694;13.294;2022-07-22T14:31:46;1.17;;;1.17;;
18576;SDS011;9418;52.694;13.294;2022-07-22T14:34:12;2.00;;;1.60;;
18576;SDS011;9418;52.694;13.294;2022-07-22T14:36:40;3.80;;;1.30;;
18576;SDS011;9418;52.694;13.294;2022-07-22T14:39:07;1.37;;;1.20;;
18576;SDS011;9418;52.694;13.294;2022-07-22T14:41:34;1.83;;;1.73;;
18576;SDS011;9418;52.694;13.294;2022-07-22T14:44:00;2.10;;;1.23;;
18576;SDS011;9418;52.694;13.294;2022-07-22T14:46:27;1.43;;;1.40;;
18576;SDS011;9418;52.694;13.294;2022-07-22T14:48:54;1.17;;;1.07;;
18576;SDS011;9418;52.694;13.294;2022-07-22T14:51:20;1.83;;;1.73;;
18576;SDS011;9418;52.694;13.294;2022-07-22T14:53:49;1.10;;;1.00;;
18576;SDS011;9418;52.694;13.294;2022-07-22T14:56:17;1.60;;;1.50;;